createdAt,value
2022-08-31T00:02:08.982Z,100937.91
2022-08-31T00:05:13.112Z,100929.97
2022-08-31T00:08:17.388Z,100932.41
2022-08-31T00:11:28.368Z,100921.97
2022-08-31T00:14:33.198Z,100923.66
2022-08-31T00:17:37.351Z,100923.16
2022-08-31T00:20:42.138Z,100919.19
2022-08-31T00:23:46.616Z,100927.91
2022-08-31T00:26:50.233Z,100928.84
2022-08-31T00:29:54.161Z,100923.91
2022-08-31T00:33:00.364Z,100919.25
2022-08-31T00:36:07.179Z,100916.41
2022-08-31T00:39:10.963Z,100918.72
2022-08-31T00:42:14.870Z,100919.28
2022-08-31T00:45:19.566Z,100918.16
2022-08-31T00:48:23.361Z,100918.59
2022-08-31T00:51:29.826Z,100919.41
2022-08-31T00:54:43.374Z,100913.47
2022-08-31T00:57:49.786Z,100920.53
2022-08-31T01:00:54.732Z,100915.66
2022-08-31T01:03:59.483Z,100911.59
2022-08-31T01:07:06.245Z,100911.09
2022-08-31T01:10:10.739Z,100908.28
2022-08-31T01:13:15.742Z,100904.13
2022-08-31T01:16:26.859Z,100909.00
2022-08-31T01:19:43.850Z,100907.78
2022-08-31T01:23:03.802Z,100907.78
2022-08-31T01:26:19.997Z,100904.56
2022-08-31T01:29:23.809Z,100913.06
2022-08-31T01:32:27.897Z,100905.16
2022-08-31T01:35:32.999Z,100908.72
2022-08-31T01:38:37.519Z,100910.50
2022-08-31T01:41:43.976Z,100906.50
2022-08-31T01:44:48.104Z,100911.44
2022-08-31T01:47:51.922Z,100905.78
2022-08-31T01:50:56.157Z,100905.94
2022-08-31T01:54:00.397Z,100906.88
2022-08-31T01:57:04.806Z,100895.91
2022-08-31T02:00:09.836Z,100894.50
2022-08-31T02:03:13.977Z,100888.03
2022-08-31T02:06:17.964Z,100895.28
2022-08-31T02:09:22.451Z,100895.69
2022-08-31T02:12:26.725Z,100896.09
2022-08-31T02:15:31.707Z,100896.63
2022-08-31T02:18:36.200Z,100894.88
2022-08-31T02:21:40.429Z,100895.22
2022-08-31T02:24:44.350Z,100900.34
2022-08-31T02:27:48.473Z,100896.00
2022-08-31T02:30:52.622Z,100889.94
2022-08-31T02:33:56.523Z,100891.50
2022-08-31T02:37:00.716Z,100899.28
2022-08-31T02:40:11.009Z,100897.91
2022-08-31T02:43:17.569Z,100900.03
2022-08-31T02:46:28.839Z,100901.06
2022-08-31T02:49:33.541Z,100900.47
2022-08-31T02:52:37.925Z,100898.59
2022-08-31T02:55:42.981Z,100900.75
2022-08-31T02:58:46.974Z,100890.53
2022-08-31T03:01:52.754Z,100891.22
2022-08-31T03:04:56.895Z,100889.63
2022-08-31T03:08:00.598Z,100893.16
2022-08-31T03:11:04.613Z,100895.56
2022-08-31T03:14:08.277Z,100886.91
2022-08-31T03:17:11.982Z,100890.56
2022-08-31T03:20:17.537Z,100891.50
2022-08-31T03:23:21.466Z,100893.44
2022-08-31T03:26:25.707Z,100892.63
2022-08-31T03:29:29.720Z,100886.31
2022-08-31T03:32:33.488Z,100887.91
2022-08-31T03:35:38.096Z,100896.69
2022-08-31T03:38:42.293Z,100901.81
2022-08-31T03:41:46.167Z,100900.00
2022-08-31T03:44:50.292Z,100905.09
2022-08-31T03:47:54.739Z,100903.53
2022-08-31T03:50:58.602Z,100908.28
2022-08-31T03:54:02.427Z,100901.94
2022-08-31T03:57:06.381Z,100910.13
2022-08-31T04:00:11.205Z,100897.16
2022-08-31T04:03:15.493Z,100922.66
2022-08-31T04:06:20.899Z,100916.66
2022-08-31T04:09:24.698Z,100918.06
2022-08-31T04:12:28.394Z,100915.50
2022-08-31T04:15:32.237Z,100915.50
2022-08-31T04:18:37.056Z,100903.53
2022-08-31T04:21:44.265Z,100900.16
2022-08-31T04:24:48.813Z,100907.22
2022-08-31T04:27:54.281Z,100913.94
2022-08-31T04:30:58.077Z,100909.16
2022-08-31T04:34:01.810Z,100921.22
2022-08-31T04:37:08.796Z,100917.69
2022-08-31T04:40:19.527Z,100917.63
2022-08-31T04:43:25.061Z,100910.94
2022-08-31T04:46:30.827Z,100916.03
2022-08-31T04:49:34.999Z,100912.94
2022-08-31T04:52:39.078Z,100915.34
2022-08-31T04:55:44.565Z,100908.44
2022-08-31T04:58:51.604Z,100913.38
2022-08-31T05:01:55.724Z,100917.25
2022-08-31T05:05:01.001Z,100909.94
2022-08-31T05:08:05.783Z,100915.06
2022-08-31T05:11:11.657Z,100922.53
2022-08-31T05:14:15.951Z,100926.81
2022-08-31T05:17:20.095Z,100932.09
2022-08-31T05:20:24.825Z,100942.22
2022-08-31T05:23:29.540Z,100947.97
2022-08-31T05:26:37.600Z,100950.69
2022-08-31T05:29:45.789Z,100948.59
2022-08-31T05:32:49.798Z,100951.75
2022-08-31T05:35:54.329Z,100956.25
2022-08-31T05:39:01.409Z,100947.53
2022-08-31T05:42:07.403Z,100961.00
2022-08-31T05:45:11.582Z,100963.66
2022-08-31T05:48:16.116Z,100966.50
2022-08-31T05:51:20.121Z,100968.69
2022-08-31T05:54:24.879Z,100966.41
2022-08-31T05:57:28.991Z,100976.09
2022-08-31T06:00:33.409Z,100983.75
2022-08-31T06:03:37.659Z,100982.53
2022-08-31T06:06:41.852Z,100982.91
2022-08-31T06:09:45.848Z,100975.75
2022-08-31T06:12:50.109Z,100987.41
2022-08-31T06:15:54.709Z,100990.91
2022-08-31T06:18:59.429Z,100990.16
2022-08-31T06:22:03.682Z,100987.94
2022-08-31T06:25:10.234Z,100985.38
2022-08-31T06:28:15.288Z,100998.66
2022-08-31T06:31:27.790Z,101000.00
2022-08-31T06:34:32.088Z,101003.53
2022-08-31T06:37:36.073Z,101003.44
2022-08-31T06:40:39.800Z,101007.03
2022-08-31T06:43:45.002Z,101011.72
2022-08-31T06:46:49.635Z,101007.81
2022-08-31T06:49:53.792Z,101008.16
2022-08-31T06:52:57.546Z,101007.19
2022-08-31T06:56:20.625Z,101016.19
2022-08-31T06:59:28.759Z,101013.66
2022-08-31T07:02:33.812Z,101021.88
2022-08-31T07:05:38.310Z,101013.66
2022-08-31T07:08:44.641Z,101018.50
2022-08-31T07:11:52.132Z,101024.22
2022-08-31T07:14:56.258Z,101026.97
2022-08-31T07:18:00.426Z,101035.72
2022-08-31T07:21:29.874Z,101028.31
2022-08-31T07:24:35.487Z,101028.59
2022-08-31T07:27:40.143Z,101034.59
2022-08-31T07:30:45.656Z,101040.47
2022-08-31T07:33:50.882Z,101041.19
2022-08-31T07:37:16.396Z,101039.34
2022-08-31T07:40:39.166Z,101040.41
2022-08-31T07:43:45.800Z,101041.00
2022-08-31T07:46:55.383Z,101039.59
2022-08-31T07:50:01.070Z,101040.25
2022-08-31T07:53:08.674Z,101037.25
2022-08-31T07:56:12.556Z,101041.84
2022-08-31T07:59:19.406Z,101048.94
2022-08-31T08:02:23.988Z,101056.00
2022-08-31T08:05:31.878Z,101051.66
2022-08-31T08:08:41.314Z,101057.91
2022-08-31T08:11:46.843Z,101060.00
2022-08-31T08:14:54.770Z,101064.69
2022-08-31T08:17:59.295Z,101060.13
2022-08-31T08:21:03.968Z,101063.75
2022-08-31T08:24:08.299Z,101058.97
2022-08-31T08:27:13.623Z,101054.81
2022-08-31T08:30:17.687Z,101057.25
2022-08-31T08:33:21.914Z,101053.50
2022-08-31T08:36:26.394Z,101061.19
2022-08-31T08:39:30.942Z,101058.22
2022-08-31T08:42:34.859Z,101056.41
2022-08-31T08:45:40.305Z,101062.09
2022-08-31T08:48:47.776Z,101061.56
2022-08-31T08:52:27.413Z,101060.56
2022-08-31T08:55:37.635Z,101066.78
2022-08-31T08:58:43.662Z,101053.97
2022-08-31T09:01:49.945Z,101060.59
2022-08-31T09:04:59.579Z,101069.56
2022-08-31T09:08:23.477Z,101054.22
2022-08-31T09:11:54.952Z,101056.91
2022-08-31T09:15:11.198Z,101060.31
2022-08-31T09:18:21.272Z,101060.44
2022-08-31T09:21:38.586Z,101064.38
2022-08-31T09:24:42.580Z,101059.63
2022-08-31T09:27:58.856Z,101049.75
2022-08-31T09:31:03.669Z,101051.91
2022-08-31T09:34:30.727Z,101058.50
2022-08-31T09:37:40.409Z,101044.91
2022-08-31T09:40:49.674Z,101045.53
2022-08-31T09:43:55.312Z,101047.88
2022-08-31T09:47:04.523Z,101063.34
2022-08-31T09:50:11.949Z,101047.59
2022-08-31T09:53:45.435Z,101040.94
2022-08-31T09:56:55.871Z,101045.66
2022-08-31T10:00:00.726Z,101039.59
2022-08-31T10:03:08.901Z,101046.88
2022-08-31T10:06:49.689Z,101031.84
2022-08-31T10:09:59.899Z,101028.81
2022-08-31T10:13:13.361Z,101031.19
2022-08-31T10:16:34.406Z,101028.41
2022-08-31T10:19:55.366Z,101022.84
2022-08-31T10:23:14.210Z,101025.09
2022-08-31T10:26:31.685Z,101029.31
2022-08-31T10:29:47.629Z,101022.72
2022-08-31T10:33:05.140Z,101019.94
2022-08-31T10:36:11.716Z,101023.53
2022-08-31T10:39:24.409Z,101025.53
2022-08-31T10:42:37.320Z,101024.53
2022-08-31T10:45:43.888Z,101011.63
2022-08-31T10:48:51.891Z,101017.13
2022-08-31T10:52:17.239Z,101030.06
2022-08-31T10:55:46.500Z,101028.19
2022-08-31T10:59:02.112Z,101024.69
2022-08-31T11:02:43.673Z,101023.25
2022-08-31T11:06:02.484Z,101016.31
2022-08-31T11:09:08.971Z,101019.19
2022-08-31T11:12:22.681Z,101013.38
2022-08-31T11:15:58.029Z,101011.47
2022-08-31T11:19:26.355Z,101009.47
2022-08-31T11:22:53.704Z,101007.19
2022-08-31T11:26:26.536Z,101002.88
2022-08-31T11:29:57.001Z,100997.13
2022-08-31T11:33:07.528Z,100989.97
2022-08-31T11:36:11.377Z,100994.91
2022-08-31T11:39:18.646Z,100998.31
2022-08-31T11:42:42.590Z,101002.59
2022-08-31T11:45:47.260Z,100995.75
2022-08-31T11:48:51.748Z,100996.47
2022-08-31T11:51:55.755Z,100991.16
2022-08-31T11:55:23.059Z,100989.31
2022-08-31T11:58:33.694Z,100989.97
2022-08-31T12:01:42.992Z,100989.97
2022-08-31T12:04:57.500Z,100987.06
2022-08-31T12:08:04.147Z,100981.78
2022-08-31T12:11:18.097Z,100979.56
2022-08-31T12:14:35.129Z,100965.97
2022-08-31T12:17:54.793Z,100964.25
2022-08-31T12:21:27.713Z,100968.13
2022-08-31T12:24:45.665Z,100965.63
2022-08-31T12:28:10.666Z,100979.72
2022-08-31T12:31:17.841Z,100975.81
2022-08-31T12:34:23.717Z,100971.91
2022-08-31T12:37:30.991Z,100978.09
2022-08-31T12:40:47.824Z,100979.88
2022-08-31T12:43:52.073Z,100981.97
2022-08-31T12:47:24.237Z,100980.13
2022-08-31T12:50:48.995Z,100982.53
2022-08-31T12:54:34.062Z,100967.06
2022-08-31T12:57:44.091Z,100966.72
2022-08-31T13:00:48.384Z,100978.31
2022-08-31T13:04:04.169Z,100972.22
2022-08-31T13:07:21.595Z,100974.94
2022-08-31T13:10:33.759Z,100968.31
2022-08-31T13:13:37.814Z,100966.84
2022-08-31T13:16:48.280Z,100966.53
2022-08-31T13:19:58.329Z,100963.75
2022-08-31T13:23:02.917Z,100965.78
2022-08-31T13:26:14.999Z,100963.75
2022-08-31T13:29:23.741Z,100965.63
2022-08-31T13:32:33.930Z,100960.44
2022-08-31T13:35:38.621Z,100962.69
2022-08-31T13:38:53.238Z,100955.91
2022-08-31T13:42:05.997Z,100952.59
2022-08-31T13:45:27.339Z,100942.03
2022-08-31T13:48:35.233Z,100947.97
2022-08-31T13:51:41.004Z,100940.81
2022-08-31T13:54:58.027Z,100943.25
2022-08-31T13:58:27.050Z,100951.00
2022-08-31T14:01:33.062Z,100937.81
2022-08-31T14:04:49.040Z,100939.28
2022-08-31T14:07:56.600Z,100940.13
2022-08-31T14:11:00.723Z,100942.25
2022-08-31T14:14:08.182Z,100942.66
2022-08-31T14:17:16.670Z,100944.53
2022-08-31T14:20:36.328Z,100949.19
2022-08-31T14:23:40.674Z,100940.22
2022-08-31T14:26:44.697Z,100935.19
2022-08-31T14:29:48.855Z,100934.88
2022-08-31T14:32:54.059Z,100943.03
2022-08-31T14:35:58.587Z,100931.19
2022-08-31T14:39:04.377Z,100933.16
2022-08-31T14:42:31.176Z,100929.44
2022-08-31T14:45:37.000Z,100927.25
2022-08-31T14:48:43.050Z,100928.50
2022-08-31T14:51:47.263Z,100919.75
2022-08-31T14:54:51.481Z,100916.66
2022-08-31T14:58:08.579Z,100915.44
2022-08-31T15:01:13.821Z,100914.56
2022-08-31T15:04:20.869Z,100909.88
2022-08-31T15:07:24.827Z,100905.25
2022-08-31T15:10:28.962Z,100903.53
2022-08-31T15:13:34.022Z,100900.63
2022-08-31T15:16:41.219Z,100900.63
2022-08-31T15:19:45.726Z,100903.84
2022-08-31T15:22:50.194Z,100905.47
2022-08-31T15:26:06.361Z,100909.97
2022-08-31T15:29:13.446Z,100912.72
2022-08-31T15:32:20.674Z,100911.22
2022-08-31T15:35:26.390Z,100903.72
2022-08-31T15:38:30.405Z,100910.03
2022-08-31T15:41:35.125Z,100904.00
2022-08-31T15:44:40.946Z,100904.56
2022-08-31T15:48:03.760Z,100897.44
2022-08-31T15:51:27.902Z,100897.88
2022-08-31T15:54:34.277Z,100888.28
2022-08-31T15:57:39.127Z,100894.03
2022-08-31T16:00:43.020Z,100890.88
2022-08-31T16:03:50.837Z,100893.44
2022-08-31T16:06:55.599Z,100895.50
2022-08-31T16:09:59.521Z,100889.63
2022-08-31T16:13:09.297Z,100895.59
2022-08-31T16:16:18.344Z,100887.31
2022-08-31T16:19:34.998Z,100882.53
2022-08-31T16:22:44.621Z,100881.03
2022-08-31T16:25:49.478Z,100882.28
2022-08-31T16:28:53.225Z,100880.81
2022-08-31T16:31:57.104Z,100878.78
2022-08-31T16:35:01.559Z,100883.22
2022-08-31T16:38:07.098Z,100877.38
2022-08-31T16:41:11.378Z,100885.50
2022-08-31T16:44:19.974Z,100874.44
2022-08-31T16:47:24.564Z,100879.78
2022-08-31T16:50:28.987Z,100882.59
2022-08-31T16:53:33.265Z,100883.75
2022-08-31T16:56:40.716Z,100883.00
2022-08-31T16:59:44.745Z,100876.56
2022-08-31T17:02:48.866Z,100883.91
2022-08-31T17:05:52.841Z,100882.91
2022-08-31T17:08:58.955Z,100895.94
2022-08-31T17:12:07.577Z,100889.97
2022-08-31T17:15:13.844Z,100902.34
2022-08-31T17:18:19.621Z,100898.16
2022-08-31T17:21:29.673Z,100898.78
2022-08-31T17:24:38.656Z,100897.28
2022-08-31T17:27:42.717Z,100903.25
2022-08-31T17:30:49.692Z,100896.94
2022-08-31T17:33:54.918Z,100905.94
2022-08-31T17:37:05.030Z,100898.00
2022-08-31T17:40:10.260Z,100902.97
2022-08-31T17:43:14.990Z,100900.63
2022-08-31T17:46:19.586Z,100901.25
2022-08-31T17:49:25.695Z,100911.56
2022-08-31T17:52:29.986Z,100900.50
2022-08-31T17:55:34.169Z,100906.50
2022-08-31T17:58:38.734Z,100907.50
2022-08-31T18:01:44.710Z,100909.28
2022-08-31T18:04:49.104Z,100919.59
2022-08-31T18:07:53.304Z,100914.03
2022-08-31T18:10:57.611Z,100919.25
2022-08-31T18:14:01.744Z,100920.25
2022-08-31T18:17:10.054Z,100929.41
2022-08-31T18:20:14.230Z,100933.53
2022-08-31T18:23:19.755Z,100930.63
2022-08-31T18:26:31.758Z,100936.16
2022-08-31T18:29:37.968Z,100937.16
2022-08-31T18:32:42.527Z,100943.91
2022-08-31T18:35:52.889Z,100951.00
2022-08-31T18:38:59.359Z,100947.06
2022-08-31T18:42:26.366Z,100952.78
2022-08-31T18:45:30.768Z,100946.09
2022-08-31T18:48:34.995Z,100950.25
2022-08-31T18:51:42.975Z,100960.34
2022-08-31T18:54:49.254Z,100958.38
2022-08-31T18:57:54.047Z,100960.53
2022-08-31T19:00:58.754Z,100960.72
2022-08-31T19:04:04.747Z,100957.56
2022-08-31T19:07:08.571Z,100955.78
2022-08-31T19:10:13.796Z,100961.34
2022-08-31T19:13:18.583Z,100962.28
2022-08-31T19:16:26.667Z,100956.56
2022-08-31T19:19:31.817Z,100965.66
2022-08-31T19:22:35.643Z,100953.59
2022-08-31T19:25:45.123Z,100952.03
2022-08-31T19:28:50.215Z,100955.16
2022-08-31T19:31:56.916Z,100960.09
2022-08-31T19:35:01.097Z,100957.91
2022-08-31T19:38:06.010Z,100951.59
2022-08-31T19:41:23.301Z,100949.22
2022-08-31T19:44:28.167Z,100952.97
2022-08-31T19:47:32.545Z,100951.97
2022-08-31T19:50:41.486Z,100952.38
2022-08-31T19:53:49.701Z,100951.13
2022-08-31T19:56:54.478Z,100952.75
2022-08-31T19:59:58.406Z,100947.59
2022-08-31T20:03:04.262Z,100948.75
2022-08-31T20:06:12.611Z,100956.28
2022-08-31T20:09:20.025Z,100952.53
2022-08-31T20:12:27.054Z,100947.16
2022-08-31T20:15:30.861Z,100948.34
2022-08-31T20:18:37.417Z,100953.06
2022-08-31T20:21:42.033Z,100956.41
2022-08-31T20:24:46.005Z,100956.41
2022-08-31T20:27:50.716Z,100962.88
2022-08-31T20:30:58.984Z,100957.34
2022-08-31T20:34:03.082Z,100959.53
2022-08-31T20:37:07.101Z,100962.47
2022-08-31T20:40:16.794Z,100956.91
2022-08-31T20:43:22.044Z,100961.44
2022-08-31T20:46:45.978Z,100957.31
2022-08-31T20:50:01.420Z,100962.59
2022-08-31T20:53:06.896Z,100957.66
2022-08-31T20:56:17.174Z,100960.03
2022-08-31T20:59:23.451Z,100956.84
2022-08-31T21:02:28.409Z,100968.44
2022-08-31T21:05:40.330Z,100969.63
2022-08-31T21:08:46.084Z,100973.53
2022-08-31T21:11:50.329Z,100973.97
2022-08-31T21:14:55.390Z,100966.22
2022-08-31T21:17:59.606Z,100973.09
2022-08-31T21:21:10.498Z,100966.94
2022-08-31T21:24:17.068Z,100966.50
2022-08-31T21:27:20.965Z,100969.63
2022-08-31T21:30:25.066Z,100958.19
2022-08-31T21:33:29.181Z,100966.44
2022-08-31T21:36:33.842Z,100959.47
2022-08-31T21:39:39.969Z,100959.06
2022-08-31T21:42:44.938Z,100966.94
2022-08-31T21:46:06.427Z,100966.69
2022-08-31T21:49:10.651Z,100963.72
2022-08-31T21:52:16.957Z,100963.47
2022-08-31T21:55:21.025Z,100962.44
2022-08-31T21:58:25.386Z,100961.22
2022-08-31T22:01:32.971Z,100969.47
2022-08-31T22:04:42.956Z,100967.88
2022-08-31T22:07:46.927Z,100970.00
2022-08-31T22:10:51.367Z,100970.75
2022-08-31T22:13:57.023Z,100975.88
2022-08-31T22:17:03.693Z,100970.91
2022-08-31T22:20:13.016Z,100975.38
2022-08-31T22:23:16.872Z,100976.50
2022-08-31T22:26:23.432Z,100978.41
2022-08-31T22:29:30.842Z,100975.22
2022-08-31T22:32:34.724Z,100981.94
2022-08-31T22:35:39.404Z,100978.34
2022-08-31T22:38:43.800Z,100980.44
2022-08-31T22:41:47.828Z,100980.81
2022-08-31T22:44:51.881Z,100981.09
2022-08-31T22:47:56.074Z,100987.03
2022-08-31T22:51:04.397Z,100988.94
2022-08-31T22:54:10.206Z,100978.09
2022-08-31T22:57:14.372Z,100983.41
2022-08-31T23:00:19.658Z,100984.38
2022-08-31T23:03:23.681Z,100980.22
2022-08-31T23:06:29.946Z,100986.25
2022-08-31T23:09:34.302Z,100989.78
2022-08-31T23:12:38.749Z,100981.47
2022-08-31T23:15:43.470Z,100972.56
2022-08-31T23:18:48.724Z,100979.81
2022-08-31T23:21:56.660Z,100966.22
2022-08-31T23:25:01.857Z,100965.59
2022-08-31T23:28:05.553Z,100963.38
2022-08-31T23:31:10.793Z,100963.28
2022-08-31T23:34:16.573Z,100965.09
2022-08-31T23:37:25.792Z,100962.25
2022-08-31T23:40:34.010Z,100969.66
2022-08-31T23:43:38.305Z,100965.75
2022-08-31T23:46:43.332Z,100963.56
2022-08-31T23:49:51.254Z,100956.44
2022-08-31T23:52:55.362Z,100954.69
2022-08-31T23:55:59.459Z,100956.25
2022-08-31T23:59:09.277Z,100956.06
